N79KW KVNY-KVNY
Flight info
| Callsign | N79KW |
|---|---|
| Flight time | 0h 39m |
| Altitude | |
| Route | ILS MISSED TO RNAV TO WHITEMAN MISSED TO CIRCLE TO WHP TO ILS 16R |
| Aircraft | SR22/L-VGD/C |
Departure
| Time | 2026-05-05 04:01 |
|---|---|
| Airport | Van Nuys Airport (KVNY) |
Arrival
| Time | 2026-05-05 04:41 |
|---|---|
| Airport | Van Nuys Airport (KVNY) |
| Time | Latitude | Longitude | Altitude | Speed | Heading |
|---|---|---|---|---|---|
| 2026-05-05 03:57 | 34.21842 | -118.49318 | 797 ft | 0 kts | 264° |
| 2026-05-05 03:59 | 34.21840 | -118.49323 | 797 ft | 5 kts | 228° |
| 2026-05-05 03:59 | 34.21751 | -118.49335 | 796 ft | 17 kts | 164° |
| 2026-05-05 03:59 | 34.21738 | -118.49229 | 795 ft | 13 kts | 2° |
| 2026-05-05 04:00 | 34.21840 | -118.49232 | 797 ft | 16 kts | 0° |
| 2026-05-05 04:00 | 34.21866 | -118.49216 | 798 ft | 0 kts | 59° |
| 2026-05-05 04:00 | 34.21874 | -118.49199 | 798 ft | 9 kts | 70° |
| 2026-05-05 04:00 | 34.21816 | -118.49119 | 797 ft | 21 kts | 178° |
| 2026-05-05 04:01 | 34.21438 | -118.49081 | 792 ft | 85 kts | 175° |
| 2026-05-05 04:01 | 34.20794 | -118.49013 | 1029 ft | 99 kts | 177° |
| 2026-05-05 04:01 | 34.20139 | -118.48910 | 1401 ft | 98 kts | 175° |
| 2026-05-05 04:01 | 34.19500 | -118.49173 | 1703 ft | 102 kts | 217° |
| 2026-05-05 04:02 | 34.18994 | -118.49850 | 1910 ft | 117 kts | 232° |
| 2026-05-05 04:02 | 34.18522 | -118.50698 | 2121 ft | 126 kts | 236° |
| 2026-05-05 04:02 | 34.18007 | -118.51588 | 2423 ft | 127 kts | 233° |
| 2026-05-05 04:02 | 34.17501 | -118.52406 | 2811 ft | 120 kts | 235° |
| 2026-05-05 04:03 | 34.17009 | -118.53207 | 3163 ft | 118 kts | 234° |
| 2026-05-05 04:03 | 34.16503 | -118.53994 | 3501 ft | 117 kts | 233° |
| 2026-05-05 04:03 | 34.15998 | -118.54773 | 3799 ft | 118 kts | 235° |
| 2026-05-05 04:03 | 34.15823 | -118.55737 | 3982 ft | 128 kts | 279° |
| 2026-05-05 04:04 | 34.16142 | -118.56810 | 4003 ft | 140 kts | 291° |
| 2026-05-05 04:04 | 34.16664 | -118.57792 | 3985 ft | 141 kts | 321° |
| 2026-05-05 04:04 | 34.17580 | -118.58064 | 3962 ft | 147 kts | 3° |
| 2026-05-05 04:04 | 34.18500 | -118.57455 | 3790 ft | 161 kts | 49° |
| 2026-05-05 04:05 | 34.19091 | -118.56283 | 3636 ft | 167 kts | 61° |
| 2026-05-05 04:05 | 34.19615 | -118.55053 | 3454 ft | 158 kts | 68° |
| 2026-05-05 04:05 | 34.19849 | -118.53806 | 3299 ft | 145 kts | 84° |
| 2026-05-05 04:05 | 34.19922 | -118.52659 | 3219 ft | 135 kts | 89° |
| 2026-05-05 04:06 | 34.19944 | -118.51571 | 3128 ft | 122 kts | 91° |
| 2026-05-05 04:06 | 34.19940 | -118.50569 | 2957 ft | 116 kts | 93° |
| 2026-05-05 04:06 | 34.19933 | -118.49618 | 2794 ft | 111 kts | 93° |
| 2026-05-05 04:06 | 34.19923 | -118.48695 | 2652 ft | 109 kts | 93° |
| 2026-05-05 04:07 | 34.19913 | -118.47758 | 2509 ft | 111 kts | 94° |
| 2026-05-05 04:07 | 34.19904 | -118.46814 | 2366 ft | 113 kts | 94° |
| 2026-05-05 04:07 | 34.19893 | -118.45858 | 2213 ft | 114 kts | 94° |
| 2026-05-05 04:07 | 34.19883 | -118.44900 | 2060 ft | 113 kts | 95° |
| 2026-05-05 04:08 | 34.19873 | -118.43968 | 1902 ft | 110 kts | 95° |
| 2026-05-05 04:08 | 34.19862 | -118.43049 | 1755 ft | 106 kts | 95° |
| 2026-05-05 04:08 | 34.19854 | -118.42172 | 1612 ft | 104 kts | 96° |
| 2026-05-05 04:08 | 34.19841 | -118.41302 | 1479 ft | 104 kts | 96° |
| 2026-05-05 04:09 | 34.19833 | -118.40419 | 1340 ft | 105 kts | 96° |
| 2026-05-05 04:09 | 34.19821 | -118.39528 | 1203 ft | 107 kts | 95° |
| 2026-05-05 04:09 | 34.19812 | -118.38624 | 1058 ft | 108 kts | 95° |
| 2026-05-05 04:09 | 34.19813 | -118.37716 | 1236 ft | 111 kts | 92° |
| 2026-05-05 04:10 | 34.19658 | -118.36821 | 1513 ft | 109 kts | 129° |
| 2026-05-05 04:10 | 34.19035 | -118.36350 | 1757 ft | 108 kts | 178° |
| 2026-05-05 04:10 | 34.18296 | -118.36584 | 1965 ft | 114 kts | 213° |
| 2026-05-05 04:10 | 34.17691 | -118.37202 | 2250 ft | 113 kts | 222° |
| 2026-05-05 04:11 | 34.17098 | -118.37833 | 2527 ft | 114 kts | 222° |
| 2026-05-05 04:11 | 34.16487 | -118.38464 | 2770 ft | 118 kts | 222° |
| 2026-05-05 04:11 | 34.15855 | -118.39111 | 3056 ft | 117 kts | 222° |
| 2026-05-05 04:11 | 34.15229 | -118.39735 | 3312 ft | 118 kts | 222° |
| 2026-05-05 04:12 | 34.14669 | -118.40444 | 3555 ft | 118 kts | 247° |
| 2026-05-05 04:12 | 34.14685 | -118.41401 | 3823 ft | 119 kts | 291° |
| 2026-05-05 04:12 | 34.15124 | -118.42255 | 4078 ft | 120 kts | 301° |
| 2026-05-05 04:12 | 34.15611 | -118.43075 | 4319 ft | 121 kts | 302° |
| 2026-05-05 04:13 | 34.16104 | -118.43906 | 4559 ft | 121 kts | 302° |
| 2026-05-05 04:13 | 34.16594 | -118.44735 | 4787 ft | 122 kts | 301° |
| 2026-05-05 04:13 | 34.17100 | -118.45586 | 4973 ft | 128 kts | 301° |
| 2026-05-05 04:13 | 34.17648 | -118.46504 | 4995 ft | 143 kts | 302° |
| 2026-05-05 04:14 | 34.18262 | -118.47549 | 4993 ft | 154 kts | 302° |
| 2026-05-05 04:14 | 34.18891 | -118.48631 | 4987 ft | 161 kts | 302° |
| 2026-05-05 04:14 | 34.19539 | -118.49766 | 4985 ft | 166 kts | 302° |
| 2026-05-05 04:14 | 34.20203 | -118.50919 | 4986 ft | 169 kts | 302° |
| 2026-05-05 04:15 | 34.20879 | -118.52097 | 4983 ft | 172 kts | 302° |
| 2026-05-05 04:15 | 34.21565 | -118.53297 | 4983 ft | 173 kts | 302° |
| 2026-05-05 04:15 | 34.22248 | -118.54506 | 4985 ft | 174 kts | 302° |
| 2026-05-05 04:15 | 34.22931 | -118.55709 | 4984 ft | 174 kts | 302° |
| 2026-05-05 04:16 | 34.23613 | -118.56916 | 4982 ft | 174 kts | 302° |
| 2026-05-05 04:16 | 34.24305 | -118.58144 | 4978 ft | 174 kts | 302° |
| 2026-05-05 04:16 | 34.24987 | -118.59360 | 4964 ft | 175 kts | 302° |
| 2026-05-05 04:16 | 34.25668 | -118.60589 | 4965 ft | 175 kts | 302° |
| 2026-05-05 04:17 | 34.26349 | -118.61813 | 4965 ft | 175 kts | 302° |
| 2026-05-05 04:17 | 34.27027 | -118.63036 | 4966 ft | 175 kts | 302° |
| 2026-05-05 04:17 | 34.27709 | -118.64257 | 4968 ft | 175 kts | 302° |
| 2026-05-05 04:17 | 34.28394 | -118.65488 | 4965 ft | 176 kts | 302° |
| 2026-05-05 04:18 | 34.29089 | -118.66707 | 4962 ft | 176 kts | 307° |
| 2026-05-05 04:18 | 34.30206 | -118.67318 | 4960 ft | 184 kts | 355° |
| 2026-05-05 04:18 | 34.31474 | -118.67055 | 4970 ft | 184 kts | 11° |
| 2026-05-05 04:18 | 34.32676 | -118.66687 | 4953 ft | 169 kts | 12° |
| 2026-05-05 04:19 | 34.33777 | -118.66340 | 4956 ft | 157 kts | 12° |
| 2026-05-05 04:19 | 34.34761 | -118.65861 | 4959 ft | 152 kts | 38° |
| 2026-05-05 04:19 | 34.35243 | -118.64792 | 4967 ft | 146 kts | 82° |
| 2026-05-05 04:19 | 34.35280 | -118.63605 | 4963 ft | 136 kts | 90° |
| 2026-05-05 04:20 | 34.35268 | -118.62496 | 4954 ft | 126 kts | 91° |
| 2026-05-05 04:20 | 34.35252 | -118.61465 | 4942 ft | 117 kts | 91° |
| 2026-05-05 04:20 | 34.35233 | -118.60487 | 4948 ft | 116 kts | 91° |
| 2026-05-05 04:20 | 34.35212 | -118.59535 | 5011 ft | 110 kts | 91° |
| 2026-05-05 04:21 | 34.35143 | -118.58553 | 4954 ft | 123 kts | 103° |
| 2026-05-05 04:21 | 34.34878 | -118.57578 | 4774 ft | 119 kts | 118° |
| 2026-05-05 04:21 | 34.34519 | -118.56709 | 4587 ft | 116 kts | 123° |
| 2026-05-05 04:21 | 34.34106 | -118.55862 | 4406 ft | 116 kts | 126° |
| 2026-05-05 04:22 | 34.33681 | -118.55042 | 4220 ft | 116 kts | 127° |
| 2026-05-05 04:22 | 34.33240 | -118.54211 | 4028 ft | 116 kts | 126° |
| 2026-05-05 04:22 | 34.32801 | -118.53397 | 3829 ft | 116 kts | 127° |
| 2026-05-05 04:22 | 34.32355 | -118.52567 | 3628 ft | 116 kts | 127° |
| 2026-05-05 04:23 | 34.31920 | -118.51756 | 3432 ft | 114 kts | 126° |
| 2026-05-05 04:23 | 34.31490 | -118.50956 | 3241 ft | 112 kts | 127° |
| 2026-05-05 04:23 | 34.31066 | -118.50172 | 3052 ft | 110 kts | 127° |
| 2026-05-05 04:23 | 34.30651 | -118.49398 | 2867 ft | 108 kts | 127° |
| 2026-05-05 04:24 | 34.30242 | -118.48639 | 2689 ft | 107 kts | 127° |
| 2026-05-05 04:24 | 34.29837 | -118.47887 | 2514 ft | 107 kts | 128° |
| 2026-05-05 04:24 | 34.29425 | -118.47128 | 2337 ft | 107 kts | 127° |
| 2026-05-05 04:25 | 34.28624 | -118.45635 | 1991 ft | 105 kts | 128° |
| 2026-05-05 04:25 | 34.28226 | -118.44895 | 1821 ft | 104 kts | 127° |
| 2026-05-05 04:25 | 34.27830 | -118.44161 | 1650 ft | 106 kts | 128° |
| 2026-05-05 04:25 | 34.27428 | -118.43414 | 1635 ft | 105 kts | 128° |
| 2026-05-05 04:26 | 34.27032 | -118.42678 | 1628 ft | 103 kts | 129° |
| 2026-05-05 04:26 | 34.26592 | -118.42020 | 1783 ft | 94 kts | 151° |
| 2026-05-05 04:26 | 34.25938 | -118.41875 | 1920 ft | 106 kts | 195° |
| 2026-05-05 04:26 | 34.25340 | -118.42419 | 2133 ft | 113 kts | 238° |
| 2026-05-05 04:27 | 34.25130 | -118.43340 | 2382 ft | 118 kts | 256° |
| 2026-05-05 04:27 | 34.24959 | -118.44308 | 2666 ft | 118 kts | 256° |
| 2026-05-05 04:27 | 34.24788 | -118.45274 | 2972 ft | 115 kts | 257° |
| 2026-05-05 04:27 | 34.24624 | -118.46204 | 3259 ft | 114 kts | 257° |
| 2026-05-05 04:28 | 34.24460 | -118.47157 | 3516 ft | 115 kts | 258° |
| 2026-05-05 04:28 | 34.24294 | -118.48115 | 3756 ft | 118 kts | 257° |
| 2026-05-05 04:28 | 34.24128 | -118.49078 | 4017 ft | 118 kts | 258° |
| 2026-05-05 04:28 | 34.23963 | -118.50037 | 4278 ft | 117 kts | 257° |
| 2026-05-05 04:29 | 34.23795 | -118.51011 | 4525 ft | 118 kts | 257° |
| 2026-05-05 04:29 | 34.23631 | -118.51964 | 4784 ft | 117 kts | 257° |
| 2026-05-05 04:29 | 34.23459 | -118.52955 | 4953 ft | 124 kts | 257° |
| 2026-05-05 04:29 | 34.23275 | -118.54024 | 4982 ft | 139 kts | 258° |
| 2026-05-05 04:30 | 34.23071 | -118.55224 | 4982 ft | 150 kts | 258° |
| 2026-05-05 04:30 | 34.22856 | -118.56478 | 4839 ft | 155 kts | 258° |
| 2026-05-05 04:30 | 34.22638 | -118.57743 | 4650 ft | 150 kts | 258° |
| 2026-05-05 04:30 | 34.22424 | -118.58968 | 4471 ft | 147 kts | 258° |
| 2026-05-05 04:31 | 34.21999 | -118.60045 | 4278 ft | 146 kts | 229° |
| 2026-05-05 04:31 | 34.21256 | -118.60832 | 4097 ft | 135 kts | 222° |
| 2026-05-05 04:31 | 34.20556 | -118.61500 | 3957 ft | 120 kts | 221° |
| 2026-05-05 04:31 | 34.19936 | -118.62073 | 3946 ft | 107 kts | 220° |
| 2026-05-05 04:32 | 34.19359 | -118.62620 | 3960 ft | 103 kts | 224° |
| 2026-05-05 04:32 | 34.19065 | -118.63365 | 3966 ft | 99 kts | 270° |
| 2026-05-05 04:32 | 34.19347 | -118.64114 | 3966 ft | 102 kts | 315° |
| 2026-05-05 04:32 | 34.20015 | -118.64383 | 3968 ft | 107 kts | 359° |
| 2026-05-05 04:33 | 34.20696 | -118.63988 | 3965 ft | 112 kts | 44° |
| 2026-05-05 04:33 | 34.21127 | -118.63193 | 3971 ft | 113 kts | 56° |
| 2026-05-05 04:33 | 34.21542 | -118.62361 | 3970 ft | 117 kts | 56° |
| 2026-05-05 04:33 | 34.21970 | -118.61498 | 3973 ft | 121 kts | 56° |
| 2026-05-05 04:34 | 34.22411 | -118.60606 | 3966 ft | 125 kts | 63° |
| 2026-05-05 04:34 | 34.22549 | -118.59554 | 3972 ft | 127 kts | 85° |
| 2026-05-05 04:34 | 34.22560 | -118.58476 | 3951 ft | 131 kts | 94° |
| 2026-05-05 04:34 | 34.22461 | -118.57333 | 3809 ft | 142 kts | 100° |
| 2026-05-05 04:35 | 34.22400 | -118.56146 | 3622 ft | 141 kts | 93° |
| 2026-05-05 04:35 | 34.22382 | -118.55010 | 3407 ft | 128 kts | 92° |
| 2026-05-05 04:35 | 34.22376 | -118.53969 | 3174 ft | 122 kts | 90° |
| 2026-05-05 04:35 | 34.22390 | -118.52955 | 3163 ft | 120 kts | 88° |
| 2026-05-05 04:36 | 34.22378 | -118.51945 | 3158 ft | 121 kts | 92° |
| 2026-05-05 04:36 | 34.22415 | -118.50932 | 3199 ft | 118 kts | 84° |
| 2026-05-05 04:36 | 34.22379 | -118.49974 | 3204 ft | 112 kts | 97° |
| 2026-05-05 04:36 | 34.22355 | -118.49046 | 3165 ft | 111 kts | 78° |
| 2026-05-05 04:37 | 34.22673 | -118.48228 | 3138 ft | 109 kts | 55° |
| 2026-05-05 04:37 | 34.23088 | -118.47403 | 3000 ft | 118 kts | 58° |
| 2026-05-05 04:37 | 34.23463 | -118.46547 | 2907 ft | 112 kts | 66° |
| 2026-05-05 04:37 | 34.23781 | -118.45718 | 2785 ft | 107 kts | 66° |
| 2026-05-05 04:38 | 34.24095 | -118.44891 | 2611 ft | 110 kts | 65° |
| 2026-05-05 04:38 | 34.24449 | -118.44074 | 2402 ft | 108 kts | 54° |
| 2026-05-05 04:38 | 34.24903 | -118.43355 | 2195 ft | 107 kts | 53° |
| 2026-05-05 04:38 | 34.25352 | -118.42648 | 1985 ft | 106 kts | 53° |
| 2026-05-05 04:39 | 34.25768 | -118.41915 | 1866 ft | 107 kts | 59° |
| 2026-05-05 04:39 | 34.26151 | -118.41136 | 1867 ft | 107 kts | 60° |
| 2026-05-05 04:39 | 34.26593 | -118.40428 | 1853 ft | 105 kts | 24° |
| 2026-05-05 04:39 | 34.27200 | -118.40609 | 1773 ft | 87 kts | 314° |
| 2026-05-05 04:40 | 34.27644 | -118.41080 | 1625 ft | 82 kts | 305° |
| 2026-05-05 04:40 | 34.27580 | -118.41638 | 1539 ft | 75 kts | 225° |
| 2026-05-05 04:40 | 34.27190 | -118.42103 | 1388 ft | 79 kts | 221° |
| 2026-05-05 04:40 | 34.26711 | -118.42162 | 1200 ft | 75 kts | 153° |
| 2026-05-05 04:41 | 34.26302 | -118.41737 | 1036 ft | 78 kts | 144° |
| 2026-05-05 04:41 | 34.25938 | -118.41358 | 994 ft | 58 kts | 138° |
| 2026-05-05 04:41 | 34.25785 | -118.41160 | 985 ft | 18 kts | 78° |
| 2026-05-05 04:41 | 34.25802 | -118.41146 | 986 ft | 0 kts | 355° |
| 2026-05-05 04:42 | 34.25817 | -118.41161 | 986 ft | 6 kts | 318° |
| 2026-05-05 04:42 | 34.25880 | -118.41225 | 990 ft | 14 kts | 325° |
| 2026-05-05 04:42 | 34.25960 | -118.41314 | 995 ft | 16 kts | 319° |
| 2026-05-05 04:42 | 34.26031 | -118.41385 | 998 ft | 17 kts | 316° |
| 2026-05-05 04:43 | 34.26125 | -118.41479 | 1001 ft | 15 kts | 321° |
| 2026-05-05 04:43 | 34.26199 | -118.41563 | 1002 ft | 12 kts | 305° |
| 2026-05-05 04:43 | 34.26231 | -118.41615 | 1002 ft | 10 kts | 348° |
| 2026-05-05 04:43 | 34.26306 | -118.41667 | 1003 ft | 12 kts | 322° |
| 2026-05-05 04:44 | 34.26367 | -118.41742 | 1004 ft | 1 kts | 301° |
| 2026-05-05 04:48 | 34.26351 | -118.41785 | 1003 ft | 14 kts | 191° |
| 2026-05-05 04:48 | 34.26157 | -118.41589 | 1001 ft | 68 kts | 138° |
| 2026-05-05 04:48 | 34.25722 | -118.41112 | 1178 ft | 89 kts | 141° |
| 2026-05-05 04:48 | 34.25247 | -118.40601 | 1451 ft | 95 kts | 143° |
| 2026-05-05 04:49 | 34.24679 | -118.40054 | 1663 ft | 104 kts | 159° |
| 2026-05-05 04:49 | 34.24088 | -118.40308 | 1931 ft | 101 kts | 247° |
| 2026-05-05 04:49 | 34.24265 | -118.41183 | 2112 ft | 116 kts | 294° |
| 2026-05-05 04:49 | 34.24711 | -118.42014 | 2371 ft | 121 kts | 307° |
| 2026-05-05 04:50 | 34.25312 | -118.42738 | 2670 ft | 122 kts | 314° |
| 2026-05-05 04:50 | 34.25959 | -118.43400 | 2955 ft | 122 kts | 316° |
| 2026-05-05 04:50 | 34.26613 | -118.44054 | 3258 ft | 120 kts | 316° |
| 2026-05-05 04:50 | 34.27253 | -118.44689 | 3522 ft | 121 kts | 316° |
| 2026-05-05 04:51 | 34.27929 | -118.45310 | 3786 ft | 122 kts | 319° |
| 2026-05-05 04:51 | 34.28624 | -118.45921 | 4055 ft | 122 kts | 319° |
| 2026-05-05 04:51 | 34.29315 | -118.46521 | 4303 ft | 123 kts | 319° |
| 2026-05-05 04:51 | 34.30009 | -118.47128 | 4557 ft | 125 kts | 318° |
| 2026-05-05 04:52 | 34.30719 | -118.47739 | 4854 ft | 126 kts | 319° |
| 2026-05-05 04:52 | 34.31461 | -118.48381 | 4975 ft | 140 kts | 319° |
| 2026-05-05 04:52 | 34.32299 | -118.49119 | 4983 ft | 156 kts | 320° |
| 2026-05-05 04:52 | 34.33218 | -118.49945 | 4978 ft | 168 kts | 320° |
| 2026-05-05 04:53 | 34.34093 | -118.50743 | 4950 ft | 147 kts | 319° |
| 2026-05-05 04:53 | 34.34859 | -118.51438 | 4943 ft | 127 kts | 319° |
| 2026-05-05 04:53 | 34.35541 | -118.52045 | 4952 ft | 117 kts | 319° |
| 2026-05-05 04:53 | 34.36184 | -118.52603 | 4953 ft | 111 kts | 319° |
| 2026-05-05 04:54 | 34.36803 | -118.53137 | 4956 ft | 106 kts | 319° |
| 2026-05-05 04:54 | 34.37364 | -118.53688 | 4956 ft | 101 kts | 311° |
| 2026-05-05 04:54 | 34.37864 | -118.54311 | 4969 ft | 105 kts | 309° |
| 2026-05-05 04:54 | 34.38387 | -118.54981 | 4975 ft | 113 kts | 309° |
| 2026-05-05 04:55 | 34.38939 | -118.55696 | 4974 ft | 119 kts | 309° |
| 2026-05-05 04:55 | 34.39523 | -118.56447 | 4968 ft | 124 kts | 309° |
| 2026-05-05 04:55 | 34.40125 | -118.57217 | 4968 ft | 129 kts | 310° |
| 2026-05-05 04:55 | 34.40755 | -118.58014 | 4957 ft | 132 kts | 309° |
| 2026-05-05 04:56 | 34.41399 | -118.58834 | 4965 ft | 134 kts | 309° |
| 2026-05-05 04:56 | 34.42034 | -118.59653 | 4969 ft | 135 kts | 309° |
| 2026-05-05 04:56 | 34.42790 | -118.60356 | 4962 ft | 142 kts | 339° |
| 2026-05-05 04:56 | 34.43767 | -118.60237 | 4967 ft | 149 kts | 24° |
| 2026-05-05 04:57 | 34.44439 | -118.59290 | 4965 ft | 151 kts | 70° |
| 2026-05-05 04:57 | 34.44472 | -118.58038 | 4972 ft | 147 kts | 99° |
| 2026-05-05 04:57 | 34.44313 | -118.56826 | 4974 ft | 145 kts | 102° |
| 2026-05-05 04:57 | 34.44010 | -118.55691 | 4967 ft | 140 kts | 131° |
| 2026-05-05 04:58 | 34.43279 | -118.54941 | 4975 ft | 135 kts | 150° |
| 2026-05-05 04:58 | 34.42509 | -118.54310 | 4971 ft | 135 kts | 150° |
| 2026-05-05 04:58 | 34.41732 | -118.53682 | 4961 ft | 128 kts | 151° |
| 2026-05-05 04:58 | 34.41025 | -118.53097 | 4958 ft | 120 kts | 151° |
| 2026-05-05 04:59 | 34.40337 | -118.52528 | 4969 ft | 119 kts | 151° |
| 2026-05-05 04:59 | 34.39642 | -118.51945 | 4975 ft | 121 kts | 151° |
| 2026-05-05 04:59 | 34.38910 | -118.51386 | 4863 ft | 130 kts | 161° |
| 2026-05-05 04:59 | 34.38098 | -118.51019 | 4641 ft | 118 kts | 169° |
| 2026-05-05 05:00 | 34.37345 | -118.50778 | 4427 ft | 110 kts | 167° |
| 2026-05-05 05:00 | 34.36637 | -118.50559 | 4306 ft | 98 kts | 176° |
| 2026-05-05 05:00 | 34.35985 | -118.50429 | 4141 ft | 95 kts | 180° |
| 2026-05-05 05:00 | 34.35302 | -118.50362 | 4018 ft | 102 kts | 181° |
| 2026-05-05 05:01 | 34.34604 | -118.50295 | 3838 ft | 99 kts | 181° |
| 2026-05-05 05:01 | 34.33907 | -118.50231 | 3674 ft | 99 kts | 183° |
| 2026-05-05 05:01 | 34.33217 | -118.50180 | 3498 ft | 100 kts | 182° |
| 2026-05-05 05:01 | 34.32523 | -118.50118 | 3333 ft | 100 kts | 181° |
| 2026-05-05 05:02 | 34.31825 | -118.50056 | 3166 ft | 100 kts | 180° |
| 2026-05-05 05:02 | 34.31130 | -118.49998 | 3007 ft | 100 kts | 181° |
| 2026-05-05 05:02 | 34.30428 | -118.49925 | 2835 ft | 101 kts | 180° |
| 2026-05-05 05:02 | 34.29723 | -118.49863 | 2671 ft | 101 kts | 179° |
| 2026-05-05 05:03 | 34.29031 | -118.49797 | 2524 ft | 100 kts | 179° |
| 2026-05-05 05:03 | 34.28334 | -118.49731 | 2368 ft | 99 kts | 179° |
| 2026-05-05 05:03 | 34.27645 | -118.49670 | 2208 ft | 99 kts | 179° |
| 2026-05-05 05:03 | 34.26959 | -118.49606 | 2052 ft | 98 kts | 179° |
| 2026-05-05 05:04 | 34.26275 | -118.49535 | 1896 ft | 97 kts | 179° |
| 2026-05-05 05:04 | 34.25610 | -118.49471 | 1741 ft | 96 kts | 179° |
| 2026-05-05 05:04 | 34.24952 | -118.49402 | 1593 ft | 94 kts | 179° |
| 2026-05-05 05:04 | 34.24306 | -118.49347 | 1453 ft | 93 kts | 179° |
| 2026-05-05 05:05 | 34.23660 | -118.49290 | 1311 ft | 94 kts | 179° |
| 2026-05-05 05:05 | 34.22998 | -118.49232 | 1175 ft | 95 kts | 178° |
| 2026-05-05 05:05 | 34.22264 | -118.49149 | 1035 ft | 124 kts | 177° |
| 2026-05-05 05:05 | 34.21448 | -118.49293 | 1424 ft | 113 kts | 211° |
| 2026-05-05 05:06 | 34.20849 | -118.49898 | 1742 ft | 113 kts | 221° |
| 2026-05-05 05:06 | 34.20280 | -118.50497 | 2073 ft | 112 kts | 220° |
| 2026-05-05 05:06 | 34.19734 | -118.51157 | 2441 ft | 105 kts | 237° |
| 2026-05-05 05:06 | 34.19516 | -118.51960 | 2746 ft | 105 kts | 270° |
| 2026-05-05 05:07 | 34.19687 | -118.52853 | 2967 ft | 114 kts | 285° |
| 2026-05-05 05:07 | 34.19969 | -118.53758 | 3221 ft | 117 kts | 290° |
| 2026-05-05 05:07 | 34.20301 | -118.54655 | 3481 ft | 119 kts | 292° |
| 2026-05-05 05:07 | 34.20690 | -118.55608 | 3585 ft | 132 kts | 294° |
| 2026-05-05 05:08 | 34.21112 | -118.56595 | 3583 ft | 134 kts | 295° |
| 2026-05-05 05:08 | 34.21550 | -118.57597 | 3578 ft | 134 kts | 295° |
| 2026-05-05 05:08 | 34.21986 | -118.58586 | 3570 ft | 128 kts | 295° |
| 2026-05-05 05:08 | 34.22358 | -118.59539 | 3562 ft | 121 kts | 279° |
| 2026-05-05 05:09 | 34.22384 | -118.60519 | 3569 ft | 115 kts | 267° |
| 2026-05-05 05:09 | 34.22344 | -118.61474 | 3566 ft | 110 kts | 266° |
| 2026-05-05 05:09 | 34.22295 | -118.62375 | 3569 ft | 105 kts | 266° |
| 2026-05-05 05:09 | 34.22249 | -118.63245 | 3567 ft | 101 kts | 267° |
| 2026-05-05 05:10 | 34.22147 | -118.64056 | 3563 ft | 97 kts | 242° |
| 2026-05-05 05:10 | 34.21627 | -118.64530 | 3568 ft | 96 kts | 196° |
| 2026-05-05 05:10 | 34.20951 | -118.64406 | 3488 ft | 107 kts | 154° |
| 2026-05-05 05:10 | 34.20461 | -118.63673 | 3396 ft | 118 kts | 108° |
| 2026-05-05 05:11 | 34.20504 | -118.62707 | 3386 ft | 119 kts | 64° |
| 2026-05-05 05:11 | 34.21011 | -118.61916 | 3391 ft | 117 kts | 43° |
| 2026-05-05 05:11 | 34.21562 | -118.61248 | 3409 ft | 113 kts | 42° |
| 2026-05-05 05:11 | 34.22116 | -118.60574 | 3379 ft | 114 kts | 44° |
| 2026-05-05 05:12 | 34.22514 | -118.59766 | 3354 ft | 114 kts | 86° |
| 2026-05-05 05:12 | 34.22483 | -118.58802 | 3314 ft | 117 kts | 93° |
| 2026-05-05 05:12 | 34.22445 | -118.57828 | 3180 ft | 116 kts | 94° |
| 2026-05-05 05:12 | 34.22386 | -118.56874 | 2995 ft | 113 kts | 94° |
| 2026-05-05 05:13 | 34.22376 | -118.55923 | 2781 ft | 113 kts | 90° |
| 2026-05-05 05:13 | 34.22387 | -118.54984 | 2597 ft | 111 kts | 90° |
| 2026-05-05 05:13 | 34.22383 | -118.54043 | 2396 ft | 112 kts | 93° |
| 2026-05-05 05:13 | 34.22360 | -118.53117 | 2217 ft | 110 kts | 95° |
| 2026-05-05 05:14 | 34.22348 | -118.52193 | 2007 ft | 110 kts | 92° |
| 2026-05-05 05:14 | 34.22378 | -118.51274 | 1802 ft | 107 kts | 83° |
| 2026-05-05 05:14 | 34.22777 | -118.50618 | 1669 ft | 95 kts | 29° |
| 2026-05-05 05:14 | 34.23235 | -118.50156 | 1533 ft | 85 kts | 83° |
| 2026-05-05 05:15 | 34.23175 | -118.49457 | 1335 ft | 83 kts | 127° |
| 2026-05-05 05:15 | 34.22702 | -118.49187 | 1125 ft | 76 kts | 182° |
| 2026-05-05 05:15 | 34.22183 | -118.49149 | 954 ft | 73 kts | 179° |
| 2026-05-05 05:15 | 34.21677 | -118.49101 | 837 ft | 72 kts | 178° |
| 2026-05-05 05:16 | 34.21218 | -118.49059 | 783 ft | 55 kts | 176° |
| 2026-05-05 05:16 | 34.20880 | -118.49032 | 775 ft | 42 kts | 179° |
| 2026-05-05 05:16 | 34.20657 | -118.49028 | 771 ft | 6 kts | 270° |
| 2026-05-05 05:16 | 34.20659 | -118.49085 | 771 ft | 7 kts | 251° |
| 2026-05-05 05:17 | 34.20655 | -118.49111 | 771 ft | 0 kts | 231° |